Terminal Aerodrome Forecast
Issued by NWS

Home | Current Version | Previous Version | Text Only | Print | Product List | Glossary On
Versions: 1 2 3 4 5 6 7 8 9 10 11 12 13 14 15 16 17 18 19 20 21
000
FTUS45 KREV 290500
TAFTVL
TAF
KTVL 290522Z 2906/3006 20014G26KT P6SM FEW050 SCT100 BKN180
      WS020/25040KT
     FM290900 19012G22KT P6SM VCSH SCT040 OVC080 WS010/25040KT
     FM291300 19010KT 3SM -RASN BKN020 OVC040
      TEMPO 2914/2917 1SM -SN OVC010
     FM292000 20014G23KT P6SM VCSH BKN040
     FM300200 20009KT P6SM VCSH SCT040 BKN080=

USA.gov is the U.S. government's official web portal to all federal, state and local government web resources and services.